Time;durP1;ratioP1;P1;durP2;ratioP2;P2;SDS_P1;SDS_P2;PMS_P1;PMS_P2;Temp;Humidity;BMP_temperature;BMP_pressure;BME280_temperature;BME280_humidity;BME280_pressure;Samples;Min_cycle;Max_cycle;Signal;HPM_P1;HPM_P2
2021/01/03 07:14:40;;;;;;;20.20;10.57;;;;;;;0.30;99.29;100704.94;4997113;28;20546;-89
2021/01/03 07:17:16;;;;;;;21.75;10.93;;;;;;;0.31;100.00;100709.19;4992820;28;20050;-89
2021/01/03 07:19:57;;;;;;;17.70;10.48;;;;;;;0.00;99.53;100721.38;4979018;28;20131;-88
2021/01/03 07:22:34;;;;;;;20.83;11.38;;;;;;;0.01;100.00;100710.53;4968252;28;20133;-88
2021/01/03 07:25:27;;;;;;;25.05;12.13;;;;;;;-0.07;100.00;100709.13;4967990;28;20050;-89
2021/01/03 07:28:18;;;;;;;20.88;11.30;;;;;;;0.22;100.00;100714.47;4995881;28;20069;-89
2021/01/03 07:30:51;;;;;;;21.80;11.13;;;;;;;0.17;100.00;100709.91;4977316;28;20054;-89
2021/01/03 07:33:59;;;;;;;21.02;11.88;;;;;;;0.04;100.00;100713.25;4969289;28;20047;-89
2021/01/03 07:36:46;;;;;;;22.52;12.02;;;;;;;0.05;100.00;100714.13;4983462;28;20583;-89
2021/01/03 07:39:27;;;;;;;25.58;12.43;;;;;;;-0.03;100.00;100717.00;4966586;28;20054;-88
2021/01/03 07:42:21;;;;;;;21.08;11.40;;;;;;;-0.07;100.00;100709.13;4970672;28;20129;-86
2021/01/03 07:44:50;;;;;;;21.90;12.40;;;;;;;0.21;100.00;100705.19;4970917;28;20050;-87
2021/01/03 07:47:49;;;;;;;23.48;12.65;;;;;;;0.04;100.00;100707.34;4986769;28;20052;-88
2021/01/03 07:50:38;;;;;;;21.17;11.40;;;;;;;0.05;100.00;100704.94;4985948;28;20129;-86
2021/01/03 07:53:35;;;;;;;23.05;11.32;;;;;;;-0.16;100.00;100701.84;4960901;28;20058;-84
2021/01/03 07:56:26;;;;;;;22.25;12.27;;;;;;;-0.05;100.00;100703.47;4977541;28;20054;-86
2021/01/03 07:58:57;;;;;;;27.67;11.88;;;;;;;0.10;100.00;100706.13;4985712;28;20061;-86
2021/01/03 08:01:33;;;;;;;23.83;12.02;;;;;;;-0.15;100.00;100705.22;4986000;28;20081;-86
2021/01/03 08:04:19;;;;;;;22.80;11.88;;;;;;;0.08;100.00;100714.34;4979137;28;20110;-86
2021/01/03 08:06:45;;;;;;;23.23;11.80;;;;;;;-0.23;100.00;100706.31;4982924;28;20114;-87
2021/01/03 08:09:30;;;;;;;21.95;11.63;;;;;;;0.14;100.00;100697.13;4976310;28;20085;-86
2021/01/03 08:12:10;;;;;;;21.45;11.70;;;;;;;-0.16;100.00;100706.88;4974262;28;20046;-86
2021/01/03 08:14:41;;;;;;;23.50;11.70;;;;;;;-0.05;100.00;100700.03;4974450;28;20050;-87
2021/01/03 08:17:23;;;;;;;19.27;10.90;;;;;;;0.01;100.00;100695.44;4977458;28;20043;-86
2021/01/03 08:20:03;;;;;;;19.52;10.52;;;;;;;0.34;100.00;100695.94;4991487;28;20057;-86
2021/01/03 08:22:35;;;;;;;21.13;11.15;;;;;;;0.09;100.00;100699.31;4957169;28;20078;-87
2021/01/03 08:25:08;;;;;;;18.95;10.90;;;;;;;0.19;100.00;100693.28;4988698;28;20081;-87
2021/01/03 08:28:21;;;;;;;18.33;11.07;;;;;;;0.39;100.00;100697.13;4985887;28;20092;-87
2021/01/03 08:31:08;;;;;;;18.17;10.25;;;;;;;0.35;100.00;100691.00;4976064;28;20463;-87
2021/01/03 08:33:43;;;;;;;16.02;10.38;;;;;;;0.37;100.00;100686.97;4973261;28;20057;-87
2021/01/03 08:36:30;;;;;;;16.33;9.68;;;;;;;0.54;100.00;100689.69;4967976;28;20166;-87
2021/01/03 08:39:01;;;;;;;;;;;;;;;0.31;100.00;100693.22;4978131;28;20864;-87
2021/01/03 08:41:31;;;;;;;15.85;8.82;;;;;;;0.60;99.89;100685.03;4979427;28;19928;-88
2021/01/03 08:43:58;;;;;;;16.65;8.98;;;;;;;0.50;99.85;100673.50;4968275;28;20102;-88
2021/01/03 08:46:31;;;;;;;18.13;9.48;;;;;;;0.41;100.00;100681.31;4973388;28;20098;-88
2021/01/03 08:49:05;;;;;;;15.77;9.02;;;;;;;0.01;100.00;100680.34;4963399;28;20042;-88
2021/01/03 08:51:33;;;;;;;14.63;8.75;;;;;;;0.42;100.00;100678.06;4971683;28;20051;-88
2021/01/03 08:54:12;;;;;;;16.08;8.70;;;;;;;0.03;100.00;100681.31;4999880;28;20053;-88
2021/01/03 08:56:49;;;;;;;16.50;9.73;;;;;;;0.38;100.00;100678.63;4973681;28;20066;-90
2021/01/03 08:59:19;;;;;;;16.60;9.50;;;;;;;0.50;100.00;100678.53;5009834;28;20050;-89
2021/01/03 09:01:46;;;;;;;15.32;9.25;;;;;;;0.31;100.00;100680.63;4999922;28;20075;-91
2021/01/03 09:04:18;;;;;;;16.05;9.48;;;;;;;0.55;100.00;100679.72;4976028;28;20051;-86
2021/01/03 09:06:53;;;;;;;15.93;9.05;;;;;;;0.25;99.94;100686.13;4971306;28;20051;-89
2021/01/03 09:09:24;;;;;;;15.43;9.63;;;;;;;0.31;100.00;100686.53;4974183;28;20053;-87
2021/01/03 09:12:01;;;;;;;16.38;9.55;;;;;;;0.21;100.00;100685.03;4978488;28;20046;-88
2021/01/03 09:14:36;;;;;;;12.80;9.02;;;;;;;0.63;99.84;100680.22;4984838;28;20054;-85
2021/01/03 09:17:10;;;;;;;10.73;6.60;;;;;;;0.79;99.30;100694.66;4994500;28;20134;-87
2021/01/03 09:19:57;;;;;;;15.43;8.73;;;;;;;0.59;98.43;100704.34;4971190;28;20500;-88
2021/01/03 09:22:34;;;;;;;15.70;8.27;;;;;;;0.40;100.00;100696.34;4988279;28;20105;-87
2021/01/03 09:25:13;;;;;;;15.43;8.68;;;;;;;0.53;100.00;100696.38;4964951;28;20067;-86
2021/01/03 09:27:41;;;;;;;12.65;7.85;;;;;;;0.06;100.00;100703.31;4967201;28;20049;-86
2021/01/03 09:30:23;;;;;;;14.55;8.48;;;;;;;0.40;100.00;100698.88;4968434;28;20566;-88
2021/01/03 09:33:05;;;;;;;13.77;7.90;;;;;;;0.31;100.00;100696.59;4963058;28;20125;-89
2021/01/03 09:36:01;;;;;;;15.30;8.77;;;;;;;0.47;100.00;100703.53;4967201;28;20043;-89
2021/01/03 09:38:40;;;;;;;14.35;8.32;;;;;;;0.23;100.00;100700.25;4989762;28;20059;-88
2021/01/03 09:41:24;;;;;;;13.30;7.82;;;;;;;0.42;100.00;100697.34;4973254;28;20054;-88
2021/01/03 09:44:28;;;;;;;14.20;7.97;;;;;;;0.53;100.00;100703.06;4969468;28;20042;-87
2021/01/03 09:47:03;;;;;;;13.85;7.85;;;;;;;0.40;100.00;100707.28;4981938;28;20075;-87
2021/01/03 09:49:47;;;;;;;16.17;8.70;;;;;;;0.23;100.00;100700.25;4969157;28;20110;-87
2021/01/03 09:52:25;;;;;;;11.57;8.00;;;;;;;0.79;100.00;100699.72;4964968;28;20082;-86
2021/01/03 09:54:59;;;;;;;12.18;7.18;;;;;;;0.38;99.44;100690.34;4974806;28;20067;-86
2021/01/03 09:58:04;;;;;;;12.82;7.55;;;;;;;0.61;99.41;100695.25;4964372;28;20133;-87
2021/01/03 10:00:57;;;;;;;11.95;7.60;;;;;;;0.54;100.00;100687.19;4970534;28;20089;-85
2021/01/03 10:03:39;;;;;;;13.20;7.85;;;;;;;0.29;100.00;100689.75;4969874;28;20134;-87
2021/01/03 10:06:29;;;;;;;12.13;7.18;;;;;;;0.66;100.00;100683.81;4969182;28;20173;-87
2021/01/03 10:09:09;;;;;;;13.48;7.45;;;;;;;0.94;99.68;100685.59;4978692;28;20062;-87
2021/01/03 10:11:37;;;;;;;10.77;6.97;;;;;;;0.59;100.00;100690.88;4977261;28;20030;-88
2021/01/03 10:14:09;;;;;;;11.68;6.82;;;;;;;0.90;99.31;100682.00;4973647;28;20054;-86
2021/01/03 10:16:38;;;;;;;12.60;7.13;;;;;;;0.60;98.52;100683.44;4974738;28;20110;-87
2021/01/03 10:19:20;;;;;;;10.77;6.30;;;;;;;0.65;100.00;100677.03;4979565;28;20129;-87
2021/01/03 10:21:49;;;;;;;12.27;7.18;;;;;;;0.95;98.83;100679.75;4982336;28;20057;-86
2021/01/03 10:24:24;;;;;;;10.65;6.22;;;;;;;1.02;98.74;100671.84;4974345;28;20050;-86
2021/01/03 10:27:03;;;;;;;11.90;7.53;;;;;;;1.15;98.26;100674.31;4974853;28;20470;-87
2021/01/03 10:29:31;;;;;;;11.02;6.78;;;;;;;0.96;98.85;100663.84;4967954;28;20129;-87
2021/01/03 10:31:58;;;;;;;11.75;6.88;;;;;;;0.93;98.46;100659.50;4974662;28;20086;-86
2021/01/03 10:34:26;;;;;;;11.65;7.15;;;;;;;1.12;97.61;100668.25;4984744;28;20055;-87
2021/01/03 10:36:54;;;;;;;9.93;6.03;;;;;;;1.11;97.61;100658.91;4975335;28;20148;-87
2021/01/03 10:39:21;;;;;;;9.50;6.40;;;;;;;0.88;99.23;100658.34;4974945;28;20113;-86
2021/01/03 10:41:47;;;;;;;9.82;6.65;;;;;;;0.82;98.98;100660.47;4973484;28;20185;-87
2021/01/03 10:44:15;;;;;;;10.65;6.75;;;;;;;0.74;98.19;100654.09;4974932;28;20365;-87
2021/01/03 10:46:42;;;;;;;10.00;6.97;;;;;;;0.36;100.00;100644.88;4973245;28;20129;-86
2021/01/03 10:49:09;;;;;;;10.65;6.57;;;;;;;0.63;100.00;100642.41;4971619;28;20066;-87
2021/01/03 10:51:42;;;;;;;9.68;6.10;;;;;;;0.47;99.81;100646.47;4967982;28;20126;-86
2021/01/03 10:54:13;;;;;;;11.85;6.70;;;;;;;0.50;100.00;100648.31;4973680;28;20042;-86
2021/01/03 10:56:40;;;;;;;9.13;6.07;;;;;;;0.74;100.00;100646.53;4974480;28;20102;-85
2021/01/03 10:59:07;;;;;;;9.70;6.70;;;;;;;0.82;99.94;100641.94;4971975;28;20066;-87
2021/01/03 11:01:38;;;;;;;7.63;5.88;;;;;;;0.61;99.14;100644.84;4981979;28;20137;-87
2021/01/03 11:04:05;;;;;;;10.57;6.85;;;;;;;0.76;98.85;100645.81;4993806;28;20611;-88
2021/01/03 11:06:44;;;;;;;9.57;6.40;;;;;;;0.97;99.28;100640.38;4974037;28;20106;-87
2021/01/03 11:09:21;;;;;;;10.57;6.50;;;;;;;0.37;99.61;100653.31;4975935;28;20051;-86
2021/01/03 11:11:49;;;;;;;11.35;6.40;;;;;;;0.38;100.00;100634.94;4979854;28;20117;-87
2021/01/03 11:14:17;;;;;;;11.63;6.80;;;;;;;0.73;100.00;100645.63;4974036;28;20105;-87
2021/01/03 11:16:45;;;;;;;11.65;6.22;;;;;;;0.66;99.42;100647.66;4979476;28;20419;-87
2021/01/03 11:19:14;;;;;;;8.63;5.60;;;;;;;0.71;100.00;100631.19;4996793;28;20120;-87
2021/01/03 11:21:41;;;;;;;9.65;6.15;;;;;;;0.58;100.00;100633.69;4974729;28;20465;-87
2021/01/03 11:24:10;;;;;;;9.00;6.57;;;;;;;0.64;100.00;100626.53;4972699;28;20046;-86
2021/01/03 11:26:40;;;;;;;9.88;6.10;;;;;;;0.48;100.00;100632.25;4972770;28;20467;-87
2021/01/03 11:29:10;;;;;;;8.25;5.53;;;;;;;0.72;100.00;100625.38;4977449;28;20070;-87
2021/01/03 11:31:39;;;;;;;7.95;5.78;;;;;;;0.71;100.00;100629.53;4973571;28;20070;-86
2021/01/03 11:34:07;;;;;;;9.90;6.32;;;;;;;0.62;100.00;100630.59;4978081;28;20767;-87
2021/01/03 11:36:34;;;;;;;9.63;5.68;;;;;;;0.54;100.00;100629.22;4988690;28;20046;-86
2021/01/03 11:39:08;;;;;;;7.55;5.25;;;;;;;1.00;100.00;100623.81;4973228;28;20051;-86
2021/01/03 11:41:36;;;;;;;10.80;6.72;;;;;;;0.59;100.00;100621.19;4974867;28;20065;-87
2021/01/03 11:44:04;;;;;;;9.32;6.60;;;;;;;0.61;100.00;100627.22;4975669;28;20717;-87
2021/01/03 11:46:31;;;;;;;10.70;6.97;;;;;;;0.94;100.00;100620.06;4991120;28;20137;-88
2021/01/03 11:48:58;;;;;;;9.23;6.40;;;;;;;0.36;100.00;100623.88;4979997;28;20141;-87
2021/01/03 11:51:26;;;;;;;8.23;6.13;;;;;;;0.68;100.00;100629.34;4983138;28;20499;-87
2021/01/03 11:53:53;;;;;;;7.68;5.38;;;;;;;0.55;100.00;100633.50;4973051;28;20102;-87
2021/01/03 11:56:22;;;;;;;8.63;5.38;;;;;;;0.29;100.00;100627.66;4973685;28;20118;-87
2021/01/03 11:58:49;;;;;;;7.38;5.82;;;;;;;0.41;100.00;100628.44;4977418;28;20026;-87
2021/01/03 12:01:20;;;;;;;9.65;6.40;;;;;;;0.74;100.00;100628.88;4977200;28;20050;-87
2021/01/03 12:03:49;;;;;;;9.30;6.80;;;;;;;0.72;100.00;100627.88;4971284;28;20478;-87
2021/01/03 12:06:21;;;;;;;8.63;5.90;;;;;;;0.63;100.00;100629.81;4972360;28;20214;-87
2021/01/03 12:08:51;;;;;;;7.90;5.63;;;;;;;0.84;100.00;100627.81;4965117;28;20137;-87
2021/01/03 12:11:20;;;;;;;8.35;5.10;;;;;;;0.93;100.00;100631.78;4971396;28;20047;-87
2021/01/03 12:14:04;;;;;;;8.13;5.57;;;;;;;0.79;99.64;100627.53;4966786;28;20059;-87
2021/01/03 12:16:31;;;;;;;7.20;5.30;;;;;;;0.98;99.26;100627.03;4970883;28;20050;-87
2021/01/03 12:18:58;;;;;;;7.85;5.25;;;;;;;1.10;98.46;100631.94;4981380;28;20053;-88
2021/01/03 12:21:28;;;;;;;8.05;5.47;;;;;;;0.89;100.00;100626.44;4988922;28;20047;-87
2021/01/03 12:23:55;;;;;;;7.35;5.07;;;;;;;0.87;100.00;100631.38;4966576;28;20050;-87
2021/01/03 12:26:22;;;;;;;12.80;6.20;;;;;;;0.95;100.00;100629.34;4967624;28;20698;-86
2021/01/03 12:28:49;;;;;;;7.50;4.95;;;;;;;0.64;100.00;100640.00;4977305;28;20054;-86
2021/01/03 12:31:16;;;;;;;7.32;5.53;;;;;;;0.69;100.00;100635.25;4966895;28;20046;-87
2021/01/03 12:33:43;;;;;;;7.75;6.13;;;;;;;0.86;100.00;100629.63;4968978;28;20107;-87
2021/01/03 12:36:11;;;;;;;8.10;5.47;;;;;;;0.64;100.00;100629.03;4976007;28;20519;-86
2021/01/03 12:38:37;;;;;;;7.18;5.68;;;;;;;0.59;100.00;100635.44;4969947;28;20089;-87
2021/01/03 12:41:04;;;;;;;9.95;5.78;;;;;;;0.80;100.00;100635.94;4968297;28;20515;-89
2021/01/03 12:43:31;;;;;;;6.85;5.60;;;;;;;0.67;100.00;100631.78;4968105;28;20085;-88
2021/01/03 12:45:58;;;;;;;9.77;5.50;;;;;;;0.52;100.00;100631.66;4986045;28;20104;-87
2021/01/03 12:48:25;;;;;;;7.18;5.25;;;;;;;0.80;100.00;100625.88;4968177;28;20112;-87
2021/01/03 12:50:51;;;;;;;6.28;5.20;;;;;;;0.61;100.00;100631.38;4969474;28;20050;-87
2021/01/03 12:53:18;;;;;;;6.95;5.60;;;;;;;1.00;100.00;100633.03;4967049;28;20061;-87
2021/01/03 12:55:45;;;;;;;6.88;5.55;;;;;;;0.58;100.00;100631.19;4967031;28;20050;-87
2021/01/03 12:58:11;;;;;;;7.22;5.00;;;;;;;0.84;100.00;100641.28;4970057;28;20056;-87
2021/01/03 13:00:38;;;;;;;7.18;5.20;;;;;;;0.55;100.00;100630.97;4969450;28;20486;-87
2021/01/03 13:03:05;;;;;;;8.68;5.72;;;;;;;0.44;100.00;100635.31;4970465;28;20149;-87
2021/01/03 13:05:31;;;;;;;6.20;4.90;;;;;;;0.60;100.00;100635.56;4968983;28;20051;-87
2021/01/03 13:07:58;;;;;;;6.68;5.28;;;;;;;0.59;100.00;100628.75;4967814;28;20065;-87
2021/01/03 13:10:24;;;;;;;7.75;5.47;;;;;;;1.10;100.00;100631.94;4969216;28;20562;-87
2021/01/03 13:12:54;;;;;;;8.05;5.30;;;;;;;0.63;100.00;100634.88;4969475;28;20493;-88
2021/01/03 13:15:23;;;;;;;7.15;5.20;;;;;;;0.38;100.00;100625.72;4968631;28;20507;-88
2021/01/03 13:17:50;;;;;;;7.55;5.20;;;;;;;0.40;100.00;100630.84;4974886;28;20053;-88
2021/01/03 13:20:17;;;;;;;8.00;4.57;;;;;;;0.71;100.00;100638.75;4968533;28;20134;-87
2021/01/03 13:22:43;;;;;;;8.30;5.45;;;;;;;0.49;100.00;100633.97;4971951;28;20089;-87
2021/01/03 13:25:11;;;;;;;6.88;5.10;;;;;;;0.33;100.00;100629.59;4974035;28;20467;-86
2021/01/03 13:27:37;;;;;;;6.05;4.18;;;;;;;0.66;100.00;100630.03;4970295;28;20158;-87
2021/01/03 13:30:05;;;;;;;5.03;4.55;;;;;;;0.55;100.00;100633.50;4969852;28;20138;-87
2021/01/03 13:32:32;;;;;;;6.38;4.32;;;;;;;0.81;100.00;100627.59;4966324;28;20121;-87
2021/01/03 13:34:59;;;;;;;6.68;4.22;;;;;;;0.98;100.00;100637.97;4969264;28;20703;-87
2021/01/03 13:37:29;;;;;;;7.38;5.22;;;;;;;0.72;100.00;100636.31;4969539;28;20123;-87
2021/01/03 13:39:56;;;;;;;7.68;5.63;;;;;;;0.64;100.00;100640.00;4965809;28;20702;-87
2021/01/03 13:42:24;;;;;;;6.97;5.15;;;;;;;0.75;100.00;100634.00;4971559;28;20751;-87
2021/01/03 13:44:53;;;;;;;6.65;4.70;;;;;;;1.23;99.65;100637.84;4974953;28;20473;-87
2021/01/03 13:47:19;;;;;;;6.05;5.15;;;;;;;0.82;100.00;100644.47;4973834;28;20093;-87
2021/01/03 13:49:46;;;;;;;8.13;5.07;;;;;;;0.57;100.00;100645.44;4971976;28;20066;-88
2021/01/03 13:52:14;;;;;;;7.78;4.70;;;;;;;0.55;100.00;100638.53;4967379;28;20078;-87
2021/01/03 13:54:42;;;;;;;5.70;4.60;;;;;;;0.71;100.00;100639.63;4970868;28;20126;-87
2021/01/03 13:57:09;;;;;;;7.25;5.25;;;;;;;0.76;99.55;100642.44;4967360;28;20089;-88
2021/01/03 13:59:39;;;;;;;5.68;4.82;;;;;;;0.68;100.00;100641.94;4971801;28;20177;-88
2021/01/03 14:02:07;;;;;;;6.75;4.60;;;;;;;0.95;100.00;100642.81;4973163;28;20050;-87
2021/01/03 14:04:34;;;;;;;6.32;4.63;;;;;;;0.66;100.00;100646.03;4972458;28;20141;-87
2021/01/03 14:07:01;;;;;;;6.15;4.78;;;;;;;1.05;100.00;100639.22;4971613;28;20612;-87
2021/01/03 14:09:28;;;;;;;5.97;4.10;;;;;;;0.69;100.00;100645.31;4987501;28;20562;-87
2021/01/03 14:12:00;;;;;;;8.07;5.45;;;;;;;0.57;100.00;100647.06;4968318;28;20594;-86
2021/01/03 14:14:27;;;;;;;6.65;4.63;;;;;;;0.49;100.00;100649.97;4966426;28;20050;-87
2021/01/03 14:16:59;;;;;;;7.13;5.55;;;;;;;0.62;100.00;100649.13;4969070;28;20062;-87
2021/01/03 14:19:28;;;;;;;7.50;5.13;;;;;;;0.67;100.00;100657.84;4970975;28;20101;-87
2021/01/03 14:21:55;;;;;;;6.95;5.85;;;;;;;0.65;100.00;100646.81;4971110;28;20054;-86
2021/01/03 14:24:22;;;;;;;7.47;4.70;;;;;;;0.64;100.00;100642.50;4970352;28;20351;-87
2021/01/03 14:26:53;;;;;;;6.60;5.15;;;;;;;0.80;100.00;100653.59;4970083;28;20061;-87
2021/01/03 14:29:22;;;;;;;9.18;6.75;;;;;;;0.81;99.22;100655.34;4971833;28;20122;-86
2021/01/03 14:31:58;;;;;;;8.10;5.25;;;;;;;0.72;100.00;100648.91;4974455;28;20058;-86
2021/01/03 14:34:40;;;;;;;15.88;9.05;;;;;;;1.07;99.78;100649.44;4968035;28;20082;-87
2021/01/03 14:37:31;;;;;;;9.38;6.68;;;;;;;0.64;100.00;100654.25;4972504;28;20089;-86
2021/01/03 14:40:05;;;;;;;13.07;8.63;;;;;;;0.57;100.00;100657.16;4986599;28;20038;-87
2021/01/03 14:42:39;;;;;;;9.15;6.45;;;;;;;0.73;100.00;100662.38;4987693;28;20047;-86
2021/01/03 14:45:20;;;;;;;8.05;6.35;;;;;;;0.60;100.00;100662.38;4977904;28;20129;-85
2021/01/03 14:48:19;;;;;;;13.05;11.85;;;;;;;0.62;100.00;100655.81;4974134;28;20074;-86
2021/01/03 14:50:58;;;;;;;12.38;10.75;;;;;;;0.58;100.00;100659.75;4972212;28;20066;-86
2021/01/03 14:53:34;;;;;;;10.05;6.72;;;;;;;0.37;100.00;100668.44;4969376;28;20107;-86
2021/01/03 14:56:14;;;;;;;9.90;7.45;;;;;;;0.81;100.00;100660.38;4971535;28;20083;-86
2021/01/03 14:58:48;;;;;;;7.85;5.05;;;;;;;0.87;100.00;100663.28;4970521;28;20059;-86
2021/01/03 15:01:40;;;;;;;8.98;7.07;;;;;;;0.49;100.00;100665.06;4988285;28;20487;-86
2021/01/03 15:04:25;;;;;;;6.90;5.38;;;;;;;0.62;100.00;100659.19;4972638;28;20117;-85
2021/01/03 15:07:22;;;;;;;8.70;6.40;;;;;;;0.86;100.00;100659.88;4971995;28;20050;-85
2021/01/03 15:09:55;;;;;;;9.00;6.07;;;;;;;0.89;100.00;100662.59;4975697;28;20060;-85
2021/01/03 15:12:27;;;;;;;8.63;6.10;;;;;;;0.83;100.00;100668.88;4983410;28;20499;-86
2021/01/03 15:14:55;;;;;;;7.47;5.55;;;;;;;0.65;100.00;100661.91;4997514;28;20430;-86
2021/01/03 15:17:24;;;;;;;7.57;6.03;;;;;;;0.45;100.00;100684.91;4979873;28;20105;-86
2021/01/03 15:20:04;;;;;;;8.73;6.53;;;;;;;0.66;100.00;100672.88;4972491;28;20042;-86
2021/01/03 15:22:56;;;;;;;7.80;5.63;;;;;;;0.99;100.00;100677.53;4980989;28;20082;-86
2021/01/03 15:25:35;;;;;;;8.05;6.10;;;;;;;0.70;100.00;100672.28;4974172;28;20039;-86
2021/01/03 15:28:03;;;;;;;7.13;5.20;;;;;;;0.33;100.00;100684.13;4971065;28;20050;-86
2021/01/03 15:30:42;;;;;;;8.80;6.07;;;;;;;0.16;100.00;100675.44;4979410;28;20137;-86
2021/01/03 15:33:12;;;;;;;9.93;7.07;;;;;;;0.34;100.00;100675.81;4987295;28;20133;-86
2021/01/03 15:35:43;;;;;;;9.20;6.78;;;;;;;0.69;100.00;100680.59;4965931;28;20074;-87
2021/01/03 15:38:13;;;;;;;6.97;5.32;;;;;;;0.88;100.00;100680.13;4980253;28;20161;-86
2021/01/03 15:40:49;;;;;;;9.55;7.72;;;;;;;0.58;100.00;100694.16;4986916;28;20042;-85
2021/01/03 15:43:22;;;;;;;15.77;7.00;;;;;;;0.61;100.00;100694.38;4975519;28;20121;-85
2021/01/03 15:45:58;;;;;;;11.85;5.80;;;;;;;0.54;100.00;100684.66;4986256;28;20039;-86
2021/01/03 15:48:25;;;;;;;8.65;6.15;;;;;;;0.54;100.00;100698.13;4977367;28;20046;-87
2021/01/03 15:50:52;;;;;;;12.80;9.43;;;;;;;0.97;100.00;100698.38;4986598;28;20043;-86
2021/01/03 15:53:23;;;;;;;7.22;5.70;;;;;;;0.92;100.00;100699.72;4980313;28;20459;-86
2021/01/03 15:55:53;;;;;;;8.90;6.25;;;;;;;0.50;100.00;100703.72;4977713;28;20419;-87
2021/01/03 15:58:20;;;;;;;11.55;7.90;;;;;;;0.55;100.00;100702.38;4976442;28;20046;-87
2021/01/03 16:00:47;;;;;;;8.18;6.45;;;;;;;0.88;100.00;100698.69;4981996;28;20071;-85
2021/01/03 16:03:14;;;;;;;10.70;6.03;;;;;;;0.76;100.00;100700.41;4998080;28;20051;-85
2021/01/03 16:05:43;;;;;;;8.05;5.95;;;;;;;0.58;100.00;100707.63;4973164;28;20127;-84
2021/01/03 16:08:13;;;;;;;10.93;6.35;;;;;;;0.50;100.00;100706.25;4971690;28;20038;-86
2021/01/03 16:10:40;;;;;;;8.45;6.07;;;;;;;0.50;100.00;100708.75;4977323;28;20134;-87
2021/01/03 16:13:07;;;;;;;9.50;6.95;;;;;;;0.67;100.00;100712.41;4987107;28;20089;-86
2021/01/03 16:15:37;;;;;;;7.38;5.82;;;;;;;0.69;100.00;100709.22;4975368;28;20372;-85
2021/01/03 16:18:05;;;;;;;9.13;5.95;;;;;;;0.52;100.00;100712.28;4984257;28;20566;-86
2021/01/03 16:20:38;;;;;;;8.50;6.25;;;;;;;0.44;100.00;100724.34;4981466;28;20051;-86
2021/01/03 16:23:41;;;;;;;9.48;6.32;;;;;;;0.21;100.00;100714.41;4985841;28;20558;-86
2021/01/03 16:26:17;;;;;;;8.15;5.80;;;;;;;0.80;100.00;100719.13;4971913;28;20109;-87
2021/01/03 16:28:52;;;;;;;7.88;5.20;;;;;;;0.53;100.00;100716.53;4973150;28;20046;-86
2021/01/03 16:31:32;;;;;;;8.75;5.50;;;;;;;0.20;100.00;100721.06;4975513;28;20055;-86
2021/01/03 16:34:26;;;;;;;9.15;6.00;;;;;;;0.56;100.00;100716.75;4972736;28;20066;-86
2021/01/03 16:37:09;;;;;;;8.05;6.00;;;;;;;0.40;100.00;100719.88;4977908;28;20077;-87
2021/01/03 16:39:47;;;;;;;7.95;5.43;;;;;;;0.46;100.00;100721.94;4975310;28;20522;-86
2021/01/03 16:42:20;;;;;;;7.38;5.65;;;;;;;0.68;100.00;100720.06;4971384;28;20126;-86
2021/01/03 16:45:07;;;;;;;6.68;4.93;;;;;;;0.57;100.00;100730.22;4973482;28;20119;-86
2021/01/03 16:47:54;;;;;;;7.70;5.15;;;;;;;0.27;100.00;100734.06;4984855;28;20566;-87
2021/01/03 16:50:40;;;;;;;6.40;5.25;;;;;;;0.40;100.00;100729.97;4969091;28;20133;-86
2021/01/03 16:53:15;;;;;;;9.25;7.35;;;;;;;0.31;100.00;100731.00;4974851;28;20059;-87
2021/01/03 16:56:16;;;;;;;13.27;8.27;;;;;;;0.31;100.00;100736.91;4974240;28;20058;-86
2021/01/03 16:59:17;;;;;;;7.18;6.47;;;;;;;0.47;100.00;100738.81;4974390;28;20051;-86
2021/01/03 17:01:57;;;;;;;8.90;6.80;;;;;;;0.25;100.00;100744.91;4997304;28;20511;-85
2021/01/03 17:04:25;;;;;;;8.15;5.30;;;;;;;0.51;100.00;100733.22;4967349;28;20053;-85
2021/01/03 17:06:57;;;;;;;7.45;6.05;;;;;;;0.43;100.00;100731.81;4973287;28;20058;-86
2021/01/03 17:09:57;;;;;;;7.88;5.63;;;;;;;0.52;100.00;100740.00;4968102;28;20046;-86
2021/01/03 17:12:59;;;;;;;9.15;5.63;;;;;;;0.54;100.00;100740.94;4969247;28;20466;-86
2021/01/03 17:15:58;;;;;;;7.20;5.97;;;;;;;0.44;100.00;100748.66;4969071;28;20055;-87
2021/01/03 17:18:43;;;;;;;7.95;5.75;;;;;;;0.86;100.00;100742.19;4974979;28;20146;-86
2021/01/03 17:21:34;;;;;;;8.30;6.25;;;;;;;1.06;100.00;100746.00;4973180;28;20053;-86
2021/01/03 17:24:23;;;;;;;7.50;5.82;;;;;;;0.78;100.00;100744.19;4974911;28;20134;-86
2021/01/03 17:27:14;;;;;;;7.40;6.15;;;;;;;0.87;100.00;100742.28;4974272;28;20054;-86
2021/01/03 17:30:02;;;;;;;8.73;6.43;;;;;;;0.53;100.00;100741.72;4977346;28;20077;-85
2021/01/03 17:32:47;;;;;;;9.38;7.10;;;;;;;0.75;100.00;100739.84;4979488;28;20046;-86
2021/01/03 17:35:46;;;;;;;9.02;6.47;;;;;;;0.69;100.00;100741.97;4977736;28;20047;-85
2021/01/03 17:38:26;;;;;;;9.20;6.45;;;;;;;0.35;100.00;100741.38;4980207;28;20518;-86
2021/01/03 17:40:59;;;;;;;12.32;9.02;;;;;;;0.45;100.00;100738.69;4978360;28;20514;-86
2021/01/03 17:43:26;;;;;;;9.98;7.57;;;;;;;0.66;100.00;100744.28;4980356;28;20135;-86
2021/01/03 17:45:53;;;;;;;12.18;7.45;;;;;;;0.69;100.00;100746.13;4978085;28;20034;-86
2021/01/03 17:48:39;;;;;;;9.77;6.60;;;;;;;0.31;100.00;100753.66;4978076;28;20042;-86
2021/01/03 17:51:08;;;;;;;7.90;6.35;;;;;;;0.31;100.00;100754.53;4977441;28;20057;-85
2021/01/03 17:53:37;;;;;;;8.38;5.85;;;;;;;0.56;100.00;100756.19;4976568;28;20221;-86
2021/01/03 17:56:06;;;;;;;9.75;6.97;;;;;;;0.63;100.00;100766.75;4995141;28;20055;-86
2021/01/03 17:58:33;;;;;;;7.72;6.40;;;;;;;0.34;100.00;100768.97;4975385;28;20081;-86
2021/01/03 18:01:00;;;;;;;8.98;6.75;;;;;;;0.49;100.00;100768.34;4979990;28;20054;-85
2021/01/03 18:03:29;;;;;;;8.52;7.13;;;;;;;0.30;100.00;100767.03;4979440;28;20053;-86
2021/01/03 18:05:56;;;;;;;9.73;7.55;;;;;;;0.68;100.00;100767.94;4979987;28;20066;-86
2021/01/03 18:08:24;;;;;;;11.43;7.35;;;;;;;0.73;100.00;100765.72;4991140;28;20111;-85
2021/01/03 18:10:51;;;;;;;12.88;9.55;;;;;;;0.28;100.00;100768.53;4998098;28;20070;-85
2021/01/03 18:13:17;;;;;;;10.30;8.18;;;;;;;0.78;100.00;100771.94;4983939;28;20090;-86
2021/01/03 18:15:46;;;;;;;10.20;6.75;;;;;;;0.30;100.00;100777.97;4982301;28;20051;-85
2021/01/03 18:18:14;;;;;;;12.25;8.18;;;;;;;0.61;100.00;100782.56;4983704;28;20038;-87
2021/01/03 18:20:41;;;;;;;12.90;7.95;;;;;;;0.52;100.00;100784.47;4982781;28;20141;-87
2021/01/03 18:23:07;;;;;;;11.32;7.10;;;;;;;0.58;100.00;100775.66;4981679;28;20074;-86
2021/01/03 18:25:34;;;;;;;8.75;6.63;;;;;;;0.49;100.00;100782.59;4982975;28;20085;-87
2021/01/03 18:28:01;;;;;;;10.13;7.15;;;;;;;0.64;100.00;100768.50;4985385;28;20853;-85
2021/01/03 18:30:30;;;;;;;7.53;5.63;;;;;;;0.81;100.00;100786.38;4980185;28;20042;-87
2021/01/03 18:32:57;;;;;;;9.05;7.07;;;;;;;0.59;100.00;100779.91;4977681;28;20519;-86
2021/01/03 18:35:35;;;;;;;10.23;6.40;;;;;;;0.83;100.00;100774.75;4984839;28;20150;-86
2021/01/03 18:38:04;;;;;;;10.32;6.65;;;;;;;0.85;100.00;100774.09;4980541;28;20054;-86
2021/01/03 18:40:34;;;;;;;10.13;6.57;;;;;;;0.68;100.00;100775.50;4977464;28;20051;-86
2021/01/03 18:43:18;;;;;;;8.57;6.53;;;;;;;1.07;100.00;100776.38;4975836;28;20050;-87
2021/01/03 18:45:46;;;;;;;8.60;6.35;;;;;;;0.50;100.00;100774.25;4957979;28;20051;-86
2021/01/03 18:48:13;;;;;;;9.30;6.32;;;;;;;0.57;100.00;100791.56;4969018;28;20050;-86
2021/01/03 18:50:40;;;;;;;9.80;7.30;;;;;;;0.84;100.00;100786.59;4981589;28;20716;-86
2021/01/03 18:53:07;;;;;;;8.52;6.50;;;;;;;0.42;100.00;100788.88;4984527;28;20077;-85
2021/01/03 18:55:34;;;;;;;9.07;6.82;;;;;;;0.30;100.00;100790.56;4971100;28;20057;-86
2021/01/03 18:58:01;;;;;;;10.27;7.10;;;;;;;0.22;100.00;100785.00;4985234;28;20092;-86
2021/01/03 19:00:29;;;;;;;8.20;6.53;;;;;;;0.88;100.00;100798.59;4976174;28;20146;-86
2021/01/03 19:02:56;;;;;;;8.73;6.53;;;;;;;0.89;100.00;100791.16;4977929;28;20056;-85
2021/01/03 19:05:24;;;;;;;9.48;7.68;;;;;;;0.48;100.00;100794.31;4985486;28;20054;-85
2021/01/03 19:07:51;;;;;;;7.45;5.82;;;;;;;0.57;100.00;100801.63;4973169;28;20140;-86